createdAt,value
2023-04-15T00:07:17.164Z,8.63
2023-04-15T00:17:25.953Z,7.32
2023-04-15T00:27:34.705Z,4.38
2023-04-15T00:37:45.557Z,7.02
2023-04-15T00:47:51.896Z,6.68
2023-04-15T00:58:00.517Z,7.43
2023-04-15T01:08:09.232Z,6.59
2023-04-15T01:18:18.025Z,6.24
2023-04-15T01:28:28.104Z,7.98
2023-04-15T01:38:27.041Z,6.79
2023-04-15T01:48:35.954Z,7.92
2023-04-15T01:58:44.694Z,7.37
2023-04-15T02:08:53.494Z,6.63
2023-04-15T02:19:02.565Z,6.16
2023-04-15T02:29:11.355Z,8.41
2023-04-15T02:39:20.094Z,6.66
2023-04-15T02:49:28.885Z,7.1
2023-04-15T02:59:37.704Z,6.02
2023-04-15T03:09:46.479Z,9.87
2023-04-15T03:19:55.333Z,5.67
2023-04-15T03:30:04.156Z,10.11
2023-04-15T03:40:13.036Z,5.72
2023-04-15T03:50:21.868Z,5.66
2023-04-15T04:00:30.751Z,5.3
2023-04-15T04:10:39.467Z,7.69
2023-04-15T04:20:48.233Z,5.27
2023-04-15T04:30:57.316Z,6.2
2023-04-15T04:41:06.111Z,8.69
2023-04-15T04:51:14.802Z,6.25
2023-04-15T05:01:23.787Z,6.9
2023-04-15T05:11:32.497Z,6.24
2023-04-15T05:21:40.850Z,5.61
2023-04-15T05:31:49.457Z,6.24
2023-04-15T05:41:58.162Z,7.56
2023-04-15T05:52:06.945Z,7.59
2023-04-15T06:02:15.953Z,10.13
2023-04-15T06:12:24.656Z,7.99
2023-04-15T06:22:33.377Z,9.4
2023-04-15T06:28:57.312Z,9.54
2023-04-15T06:38:06.039Z,14.21
2023-04-15T06:48:14.839Z,12.56
2023-04-15T06:58:23.583Z,10.86
2023-04-15T07:08:32.200Z,11.06
2023-04-15T07:18:40.766Z,11.79
2023-04-15T07:28:49.422Z,7.45
2023-04-15T07:38:57.967Z,6.7
2023-04-15T07:49:06.755Z,7.67
2023-04-15T07:59:15.471Z,9.14
2023-04-15T08:09:24.036Z,9.82
2023-04-15T08:19:32.854Z,7.99
2023-04-15T08:29:41.462Z,7.01
2023-04-15T08:39:50.144Z,6.98
2023-04-15T08:49:58.873Z,5.19
2023-04-15T09:00:07.031Z,7.71
2023-04-15T09:10:15.713Z,6.55
2023-04-15T09:20:24.294Z,5.94
2023-04-15T09:30:32.870Z,5.29
2023-04-15T09:40:41.456Z,4.87
2023-04-15T09:50:50.069Z,5.98
2023-04-15T10:00:58.917Z,3.97
2023-04-15T10:11:07.627Z,8.36
2023-04-15T10:21:16.503Z,7.79
2023-04-15T10:31:25.106Z,8.01
2023-04-15T10:41:33.708Z,10.01
2023-04-15T10:51:42.464Z,6.1
2023-04-15T11:01:51.246Z,7.7
2023-04-15T11:11:59.912Z,6.21
2023-04-15T11:22:08.790Z,5.91
2023-04-15T11:32:17.656Z,5.99
2023-04-15T11:42:36.376Z,5.29
2023-04-15T11:52:28.965Z,6.11
2023-04-15T12:02:28.956Z,7.39
2023-04-15T12:12:39.329Z,7.66
2023-04-15T12:22:38.626Z,6.92
2023-04-15T12:32:38.616Z,8.43
2023-04-15T12:42:46.788Z,8.17
2023-04-15T12:52:55.671Z,7.8
2023-04-15T13:03:06.325Z,6.9
2023-04-15T13:13:14.417Z,8.06
2023-04-15T13:23:13.028Z,11.19
2023-04-15T13:33:21.752Z,8.55
2023-04-15T13:43:30.420Z,7.86
2023-04-15T13:53:40.393Z,8.85
2023-04-15T14:03:52.076Z,8
2023-04-15T14:13:50.393Z,8.56
2023-04-15T14:23:59.550Z,7.26
2023-04-15T14:34:08.867Z,10.13
2023-04-15T14:44:17.554Z,11.22
2023-04-15T14:54:25.846Z,10.45
2023-04-15T15:04:34.601Z,11.73
2023-04-15T15:14:43.275Z,11.4
2023-04-15T15:24:51.978Z,12.41
2023-04-15T15:35:00.659Z,13.41
2023-04-15T15:45:10.497Z,14.64
2023-04-15T15:55:19.224Z,12.13
2023-04-15T16:05:27.815Z,12.81
2023-04-15T16:15:36.833Z,14.56
2023-04-15T16:25:45.778Z,15.31
2023-04-15T16:35:54.496Z,11.61
2023-04-15T16:46:03.343Z,14.09
2023-04-15T16:56:12.121Z,10.91
2023-04-15T17:06:20.895Z,11.91
2023-04-15T17:16:29.628Z,9.47
2023-04-15T17:26:38.216Z,11.35
2023-04-15T17:36:46.837Z,13.14
2023-04-15T17:46:55.605Z,10.18
2023-04-15T17:57:04.304Z,11.76
2023-04-15T18:07:12.948Z,9.13
2023-04-15T18:17:21.758Z,10.78
2023-04-15T18:27:30.369Z,14.6
2023-04-15T18:37:39.235Z,10.82
2023-04-15T18:47:48.085Z,10.28
2023-04-15T18:57:56.873Z,11.02
2023-04-15T19:08:03.976Z,9.7
2023-04-15T19:18:12.812Z,12.51
2023-04-15T19:28:21.517Z,10.82
2023-04-15T19:38:30.130Z,11.4
2023-04-15T19:48:38.711Z,11.62
2023-04-15T19:58:47.412Z,11.43
2023-04-15T20:08:56.099Z,14.32
2023-04-15T20:19:04.916Z,14.74
2023-04-15T20:29:13.314Z,10.68
2023-04-15T20:39:22.165Z,14.33
2023-04-15T20:49:30.891Z,14.31
2023-04-15T20:59:39.518Z,15.22
2023-04-15T21:09:48.361Z,19.94
2023-04-15T21:19:57.148Z,10.56
2023-04-15T21:30:05.854Z,11.34
2023-04-15T21:40:14.622Z,12.85
2023-04-15T21:50:23.205Z,17.06
2023-04-15T22:00:31.913Z,14.5
2023-04-15T22:10:40.546Z,11.14
2023-04-15T22:20:49.394Z,14.2
2023-04-15T22:30:58.158Z,17.22
2023-04-15T22:41:06.832Z,12.65
2023-04-15T22:51:15.419Z,9.42
2023-04-15T23:01:24.303Z,12.51
2023-04-15T23:11:33.237Z,10.27
2023-04-15T23:21:42.084Z,10.96
2023-04-15T23:31:50.844Z,15.15
2023-04-15T23:41:59.521Z,10.72
2023-04-15T23:52:08.330Z,11.74
